createdAt,value
2022-12-03T00:00:12.103Z,1.67
2022-12-03T00:02:41.374Z,1.63
2022-12-03T00:05:09.418Z,1.61
2022-12-03T00:07:36.574Z,1.63
2022-12-03T00:10:05.956Z,1.63
2022-12-03T00:12:33.034Z,1.66
2022-12-03T00:15:00.005Z,1.67
2022-12-03T00:17:26.997Z,1.64
2022-12-03T00:19:54.066Z,1.69
2022-12-03T00:22:21.039Z,1.67
2022-12-03T00:24:48.490Z,1.67
2022-12-03T00:27:16.544Z,1.69
2022-12-03T00:29:44.914Z,1.66
2022-12-03T00:32:11.923Z,1.67
2022-12-03T00:34:39.961Z,1.66
2022-12-03T00:37:07.086Z,1.72
2022-12-03T00:39:34.257Z,1.67
2022-12-03T00:42:01.407Z,1.64
2022-12-03T00:44:28.512Z,1.71
2022-12-03T00:46:55.565Z,1.67
2022-12-03T00:49:22.590Z,1.63
2022-12-03T00:51:49.670Z,1.63
2022-12-03T00:54:16.706Z,1.66
2022-12-03T00:56:44.765Z,1.65
2022-12-03T00:59:11.923Z,1.67
2022-12-03T01:01:38.993Z,1.61
2022-12-03T01:04:06.110Z,1.64
2022-12-03T01:06:33.203Z,1.69
2022-12-03T01:09:00.264Z,1.68
2022-12-03T01:11:39.639Z,1.67
2022-12-03T01:14:19.744Z,1.66
2022-12-03T01:16:48.493Z,1.64
2022-12-03T01:19:17.033Z,1.66
2022-12-03T01:21:50.301Z,1.70
2022-12-03T01:24:19.576Z,1.67
2022-12-03T01:26:47.035Z,1.66
2022-12-03T01:29:14.369Z,1.70
2022-12-03T01:32:00.131Z,1.67
2022-12-03T01:34:27.154Z,1.70
2022-12-03T01:36:54.198Z,1.69
2022-12-03T01:39:21.498Z,1.70
2022-12-03T01:41:51.526Z,1.67
2022-12-03T01:44:27.227Z,1.67
2022-12-03T01:46:58.340Z,1.72
2022-12-03T01:49:31.585Z,1.68
2022-12-03T01:51:59.441Z,1.67
2022-12-03T01:54:35.854Z,1.70
2022-12-03T01:57:03.066Z,1.69
2022-12-03T01:59:38.575Z,1.66
2022-12-03T02:02:22.596Z,1.69
2022-12-03T02:04:53.301Z,1.66
2022-12-03T02:07:29.899Z,1.65
2022-12-03T02:09:59.925Z,1.66
2022-12-03T02:12:56.741Z,1.65
2022-12-03T02:15:26.105Z,1.68
2022-12-03T02:17:55.433Z,1.66
2022-12-03T02:20:22.887Z,1.64
2022-12-03T02:23:40.782Z,1.64
2022-12-03T02:26:08.119Z,1.62
2022-12-03T02:28:35.274Z,1.69
2022-12-03T02:31:02.413Z,1.66
2022-12-03T02:33:29.467Z,1.76
2022-12-03T02:36:03.116Z,1.72
2022-12-03T02:38:34.433Z,1.68
2022-12-03T02:41:10.295Z,1.66
2022-12-03T02:43:38.429Z,1.64
2022-12-03T02:46:08.495Z,1.64
2022-12-03T02:48:39.856Z,1.64
2022-12-03T02:51:11.155Z,1.67
2022-12-03T02:53:44.547Z,1.69
2022-12-03T02:56:18.596Z,1.68
2022-12-03T02:58:50.523Z,1.67
2022-12-03T03:01:18.128Z,1.65
2022-12-03T03:03:48.034Z,1.64
2022-12-03T03:06:18.271Z,1.66
2022-12-03T03:08:45.913Z,1.69
2022-12-03T03:11:13.156Z,1.68
2022-12-03T03:13:40.894Z,1.66
2022-12-03T03:16:09.390Z,1.66
2022-12-03T03:18:37.016Z,1.68
2022-12-03T03:21:05.193Z,1.68
2022-12-03T03:23:32.956Z,1.69
2022-12-03T03:26:04.389Z,1.68
2022-12-03T03:28:36.186Z,1.69
2022-12-03T03:31:16.234Z,1.70
2022-12-03T03:33:46.929Z,1.70
2022-12-03T03:36:15.977Z,1.69
2022-12-03T03:38:43.121Z,1.72
2022-12-03T03:41:12.326Z,1.73
2022-12-03T03:43:45.584Z,1.68
2022-12-03T03:46:14.470Z,1.68
2022-12-03T03:48:43.630Z,1.70
2022-12-03T03:51:13.423Z,1.67
2022-12-03T03:53:48.510Z,1.66
2022-12-03T03:56:21.952Z,1.68
2022-12-03T03:58:49.084Z,1.69
2022-12-03T04:01:18.069Z,1.66
2022-12-03T04:03:45.475Z,1.67
2022-12-03T04:06:12.555Z,1.63
2022-12-03T04:08:45.445Z,1.63
2022-12-03T04:11:31.500Z,1.67
2022-12-03T04:13:58.599Z,1.61
2022-12-03T04:16:29.626Z,1.64
2022-12-03T04:18:56.626Z,1.63
2022-12-03T04:21:42.709Z,1.61
2022-12-03T04:24:11.688Z,1.62
2022-12-03T04:26:57.378Z,1.57
2022-12-03T04:29:24.437Z,1.58
2022-12-03T04:32:10.130Z,1.62
2022-12-03T04:34:56.276Z,1.57
2022-12-03T04:37:23.809Z,1.64
2022-12-03T04:39:51.099Z,1.63
2022-12-03T04:42:18.091Z,1.55
2022-12-03T04:44:45.080Z,1.54
2022-12-03T04:47:17.858Z,1.53
2022-12-03T04:49:50.675Z,1.52
2022-12-03T04:52:20.538Z,1.49
2022-12-03T04:54:47.571Z,1.47
2022-12-03T04:57:14.826Z,1.52
2022-12-03T04:59:41.778Z,1.50
2022-12-03T05:02:09.731Z,1.50
2022-12-03T05:04:37.086Z,1.50
2022-12-03T05:07:04.328Z,1.51
2022-12-03T05:09:33.263Z,1.48
2022-12-03T05:12:00.674Z,1.49
2022-12-03T05:14:27.827Z,1.53
2022-12-03T05:16:54.939Z,1.54
2022-12-03T05:19:42.044Z,1.52
2022-12-03T05:22:09.138Z,1.47
2022-12-03T05:24:36.281Z,1.46
2022-12-03T05:27:03.302Z,1.42
2022-12-03T05:29:30.318Z,1.43
2022-12-03T05:31:57.280Z,1.49
2022-12-03T05:34:24.280Z,1.51
2022-12-03T05:36:51.320Z,1.45
2022-12-03T05:39:18.262Z,1.44
2022-12-03T05:42:04.135Z,1.44
2022-12-03T05:44:31.789Z,1.46
2022-12-03T05:46:58.785Z,1.46
2022-12-03T05:49:25.879Z,1.44
2022-12-03T05:51:58.231Z,1.45
2022-12-03T05:54:26.332Z,1.45
2022-12-03T05:56:54.368Z,1.44
2022-12-03T05:59:21.589Z,1.46
2022-12-03T06:01:48.713Z,1.43
2022-12-03T06:04:16.685Z,1.43
2022-12-03T06:06:44.752Z,1.42
2022-12-03T06:09:12.814Z,1.43
2022-12-03T06:11:40.602Z,1.42
2022-12-03T06:14:07.838Z,1.39
2022-12-03T06:16:36.986Z,1.47
2022-12-03T06:19:04.050Z,1.43
2022-12-03T06:21:31.155Z,1.45
2022-12-03T06:23:58.203Z,1.41
2022-12-03T06:26:25.329Z,1.43
2022-12-03T06:28:52.649Z,1.42
2022-12-03T06:31:19.707Z,1.44
2022-12-03T06:33:47.778Z,1.46
2022-12-03T06:36:17.788Z,1.45
2022-12-03T06:38:48.652Z,1.41
2022-12-03T06:41:16.802Z,1.42
2022-12-03T06:43:43.875Z,1.41
2022-12-03T06:46:10.983Z,1.39
2022-12-03T06:48:38.002Z,1.41
2022-12-03T06:51:05.269Z,1.40
2022-12-03T06:53:32.277Z,1.40
2022-12-03T06:55:59.936Z,1.42
2022-12-03T06:58:26.934Z,1.40
2022-12-03T07:00:53.978Z,1.43
2022-12-03T07:03:21.249Z,1.39
2022-12-03T07:05:48.277Z,1.45
2022-12-03T07:08:15.433Z,1.42
2022-12-03T07:10:42.444Z,1.41
2022-12-03T07:13:10.646Z,1.41
2022-12-03T07:15:37.782Z,1.44
2022-12-03T07:18:05.097Z,1.46
2022-12-03T07:20:32.134Z,1.45
2022-12-03T07:22:59.166Z,1.42
2022-12-03T07:25:26.202Z,1.41
2022-12-03T07:27:53.304Z,1.46
2022-12-03T07:30:20.411Z,1.41
2022-12-03T07:32:47.551Z,1.40
2022-12-03T07:35:15.933Z,1.51
2022-12-03T07:37:42.982Z,1.64
2022-12-03T07:40:11.596Z,1.64
2022-12-03T07:42:38.741Z,1.65
2022-12-03T07:45:06.830Z,1.63
2022-12-03T07:47:33.938Z,1.62
2022-12-03T07:50:00.978Z,1.69
2022-12-03T07:52:27.962Z,1.75
2022-12-03T07:54:55.241Z,1.78
2022-12-03T07:57:22.377Z,1.76
2022-12-03T07:59:49.447Z,1.75
2022-12-03T08:02:21.352Z,1.85
2022-12-03T08:04:48.923Z,1.86
2022-12-03T08:07:16.069Z,1.82
2022-12-03T08:09:43.503Z,1.80
2022-12-03T08:12:24.999Z,1.81
2022-12-03T08:14:52.985Z,1.75
2022-12-03T08:17:23.654Z,1.67
2022-12-03T08:19:50.781Z,1.63
2022-12-03T08:22:17.862Z,1.60
2022-12-03T08:24:44.940Z,1.54
2022-12-03T08:27:20.238Z,1.53
2022-12-03T08:29:47.217Z,1.48
2022-12-03T08:32:14.516Z,1.53
2022-12-03T08:34:44.634Z,1.52
2022-12-03T08:37:19.103Z,1.48
2022-12-03T08:39:48.494Z,1.43
2022-12-03T08:42:41.920Z,1.47
2022-12-03T08:45:39.541Z,1.45
2022-12-03T08:48:19.158Z,1.44
2022-12-03T08:50:46.780Z,1.41
2022-12-03T08:53:14.332Z,1.46
2022-12-03T08:55:48.977Z,1.46
2022-12-03T08:58:36.213Z,1.51
2022-12-03T09:01:43.754Z,1.44
2022-12-03T09:04:38.820Z,1.41
2022-12-03T09:07:06.169Z,1.38
2022-12-03T09:09:34.671Z,1.39
2022-12-03T09:12:02.224Z,1.37
2022-12-03T09:14:29.355Z,1.35
2022-12-03T09:16:57.090Z,1.35
2022-12-03T09:19:27.492Z,1.34
2022-12-03T09:21:54.912Z,1.41
2022-12-03T09:24:22.476Z,1.36
2022-12-03T09:26:50.123Z,1.31
2022-12-03T09:29:17.202Z,1.30
2022-12-03T09:31:44.494Z,1.27
2022-12-03T09:34:11.764Z,1.27
2022-12-03T09:36:38.798Z,1.30
2022-12-03T09:39:05.837Z,1.29
2022-12-03T09:41:32.962Z,1.28
2022-12-03T09:44:05.578Z,1.27
2022-12-03T09:46:36.651Z,1.28
2022-12-03T09:49:12.257Z,1.33
2022-12-03T09:51:45.502Z,1.27
2022-12-03T09:54:25.768Z,1.33
2022-12-03T09:56:55.846Z,1.39
2022-12-03T09:59:27.395Z,1.48
2022-12-03T10:01:59.433Z,1.53
2022-12-03T10:04:29.758Z,1.57
2022-12-03T10:06:58.963Z,1.68
2022-12-03T10:09:29.212Z,1.70
2022-12-03T10:11:59.753Z,1.65
2022-12-03T10:14:27.908Z,1.62
2022-12-03T10:16:55.442Z,1.67
2022-12-03T10:19:27.518Z,1.72
2022-12-03T10:21:55.817Z,1.72
2022-12-03T10:24:33.186Z,1.70
2022-12-03T10:27:22.662Z,1.73
2022-12-03T10:30:01.910Z,1.70
2022-12-03T10:32:45.282Z,1.75
2022-12-03T10:35:18.886Z,1.71
2022-12-03T10:38:24.570Z,1.74
2022-12-03T10:40:51.639Z,1.65
2022-12-03T10:43:18.601Z,1.66
2022-12-03T10:46:07.625Z,1.72
2022-12-03T10:48:38.166Z,1.74
2022-12-03T10:51:21.196Z,1.86
2022-12-03T10:53:50.716Z,1.83
2022-12-03T10:56:25.742Z,1.92
2022-12-03T10:58:53.618Z,1.90
2022-12-03T11:01:25.396Z,1.87
2022-12-03T11:03:56.549Z,1.88
2022-12-03T11:06:26.241Z,1.88
2022-12-03T11:08:58.431Z,1.89
2022-12-03T11:11:30.498Z,1.86
2022-12-03T11:14:04.062Z,1.83
2022-12-03T11:16:40.016Z,1.83
2022-12-03T11:19:13.051Z,1.81
2022-12-03T11:22:09.968Z,1.75
2022-12-03T11:24:40.580Z,1.75
2022-12-03T11:27:18.761Z,1.73
2022-12-03T11:29:54.349Z,1.76
2022-12-03T11:32:40.382Z,1.77
2022-12-03T11:35:37.083Z,1.82
2022-12-03T11:38:50.764Z,1.80
2022-12-03T11:41:26.534Z,1.83
2022-12-03T11:43:55.873Z,1.77
2022-12-03T11:46:37.503Z,1.76
2022-12-03T11:49:37.712Z,1.72
2022-12-03T11:52:31.572Z,1.70
2022-12-03T11:55:18.207Z,1.69
2022-12-03T11:57:45.928Z,1.68
2022-12-03T12:00:23.767Z,1.75
2022-12-03T12:02:57.694Z,1.73
2022-12-03T12:05:32.542Z,1.77
2022-12-03T12:08:02.761Z,1.81
2022-12-03T12:10:48.536Z,1.86
2022-12-03T12:13:32.302Z,1.89
2022-12-03T12:16:09.478Z,1.84
2022-12-03T12:18:55.147Z,1.84
2022-12-03T12:21:47.638Z,1.85
2022-12-03T12:24:40.342Z,1.88
2022-12-03T12:27:12.311Z,1.88
2022-12-03T12:29:47.773Z,1.91
2022-12-03T12:32:18.351Z,1.88
2022-12-03T12:34:53.763Z,1.90
2022-12-03T12:37:31.230Z,1.91
2022-12-03T12:40:11.439Z,1.94
2022-12-03T12:42:56.194Z,1.89
2022-12-03T12:45:29.730Z,1.82
2022-12-03T12:48:15.493Z,1.85
2022-12-03T12:50:46.703Z,1.84
2022-12-03T12:53:33.806Z,1.85
2022-12-03T12:56:19.573Z,1.82
2022-12-03T12:58:46.903Z,1.80
2022-12-03T13:01:23.866Z,1.79
2022-12-03T13:03:52.598Z,1.81
2022-12-03T13:06:27.424Z,1.81
2022-12-03T13:08:55.310Z,1.84
2022-12-03T13:11:25.463Z,1.85
2022-12-03T13:13:52.666Z,1.83
2022-12-03T13:16:38.249Z,1.83
2022-12-03T13:19:28.694Z,1.85
2022-12-03T13:22:00.757Z,1.88
2022-12-03T13:24:47.614Z,1.86
2022-12-03T13:27:17.485Z,1.84
2022-12-03T13:29:53.597Z,1.82
2022-12-03T13:32:27.625Z,1.79
2022-12-03T13:35:07.016Z,1.73
2022-12-03T13:37:35.243Z,1.72
2022-12-03T13:40:30.741Z,1.69
2022-12-03T13:42:58.573Z,1.69
2022-12-03T13:45:38.696Z,1.73
2022-12-03T13:48:34.019Z,1.69
2022-12-03T13:51:20.124Z,1.69
2022-12-03T13:53:47.282Z,1.67
2022-12-03T13:56:28.498Z,1.70
2022-12-03T13:58:57.893Z,1.68
2022-12-03T14:01:24.930Z,1.64
2022-12-03T14:03:52.281Z,1.62
2022-12-03T14:06:21.498Z,1.62
2022-12-03T14:08:48.779Z,1.59
2022-12-03T14:11:34.316Z,1.60
2022-12-03T14:14:03.447Z,1.57
2022-12-03T14:16:30.630Z,1.55
2022-12-03T14:18:57.635Z,1.55
2022-12-03T14:21:25.687Z,1.59
2022-12-03T14:23:52.688Z,1.56
2022-12-03T14:26:19.740Z,1.54
2022-12-03T14:28:46.776Z,1.51
2022-12-03T14:31:13.890Z,1.54
2022-12-03T14:33:42.909Z,1.50
2022-12-03T14:36:10.116Z,1.48
2022-12-03T14:38:37.176Z,1.46
2022-12-03T14:41:04.206Z,1.49
2022-12-03T14:43:32.209Z,1.46
2022-12-03T14:46:00.306Z,1.50
2022-12-03T14:48:28.130Z,1.48
2022-12-03T14:50:55.266Z,1.44
2022-12-03T14:53:27.031Z,1.48
2022-12-03T14:55:55.894Z,1.46
2022-12-03T14:58:22.910Z,1.41
2022-12-03T15:00:50.039Z,1.41
2022-12-03T15:03:17.027Z,1.39
2022-12-03T15:05:44.102Z,1.38
2022-12-03T15:08:11.203Z,1.37
2022-12-03T15:10:38.259Z,1.35
2022-12-03T15:13:05.325Z,1.37
2022-12-03T15:15:32.366Z,1.37
2022-12-03T15:17:59.402Z,1.33
2022-12-03T15:20:27.837Z,1.25
2022-12-03T15:22:55.093Z,1.27
2022-12-03T15:25:25.654Z,1.27
2022-12-03T15:27:52.873Z,1.20
2022-12-03T15:30:20.755Z,1.14
2022-12-03T15:32:47.771Z,1.10
2022-12-03T15:35:18.373Z,1.04
2022-12-03T15:37:45.965Z,1.03
2022-12-03T15:40:13.488Z,1.00
2022-12-03T15:42:41.525Z,0.99
2022-12-03T15:45:14.781Z,0.99
2022-12-03T15:47:42.203Z,0.96
2022-12-03T15:50:10.024Z,0.96
2022-12-03T15:52:36.971Z,0.93
2022-12-03T15:55:04.371Z,0.92
2022-12-03T15:57:31.461Z,0.88
2022-12-03T15:59:58.554Z,0.89
2022-12-03T16:02:26.198Z,0.89
2022-12-03T16:04:53.350Z,0.83
2022-12-03T16:07:20.409Z,0.83
2022-12-03T16:09:47.396Z,0.85
2022-12-03T16:12:14.427Z,0.82
2022-12-03T16:14:41.450Z,0.86
2022-12-03T16:17:08.640Z,0.84
2022-12-03T16:19:36.352Z,0.77
2022-12-03T16:22:03.668Z,0.78
2022-12-03T16:24:30.714Z,0.73
2022-12-03T16:26:57.760Z,0.71
2022-12-03T16:29:24.932Z,0.74
2022-12-03T16:31:51.951Z,0.69
2022-12-03T16:34:18.922Z,0.70
2022-12-03T16:36:47.517Z,0.69
2022-12-03T16:39:16.589Z,0.71
2022-12-03T16:41:44.466Z,0.69
2022-12-03T16:44:20.307Z,0.72
2022-12-03T16:46:47.521Z,0.69
2022-12-03T16:49:14.608Z,0.70
2022-12-03T16:51:41.582Z,0.73
2022-12-03T16:54:08.738Z,0.72
2022-12-03T16:56:37.235Z,0.71
2022-12-03T16:59:04.222Z,0.69
2022-12-03T17:01:32.358Z,0.75
2022-12-03T17:03:59.377Z,0.74
2022-12-03T17:06:26.388Z,0.73
2022-12-03T17:08:55.466Z,0.73
2022-12-03T17:11:22.447Z,0.83
2022-12-03T17:13:49.523Z,0.77
2022-12-03T17:16:16.698Z,0.73
2022-12-03T17:18:43.783Z,0.74
2022-12-03T17:21:10.931Z,0.69
2022-12-03T17:23:37.970Z,0.71
2022-12-03T17:26:06.388Z,0.71
2022-12-03T17:28:33.497Z,0.69
2022-12-03T17:31:00.627Z,0.69
2022-12-03T17:33:28.696Z,0.68
2022-12-03T17:35:55.766Z,0.65
2022-12-03T17:38:24.281Z,0.67
2022-12-03T17:40:51.422Z,0.68
2022-12-03T17:43:18.638Z,0.59
2022-12-03T17:45:45.959Z,0.60
2022-12-03T17:48:13.171Z,0.64
2022-12-03T17:50:44.356Z,0.61
2022-12-03T17:53:11.686Z,0.55
2022-12-03T17:55:44.582Z,0.51
2022-12-03T17:58:13.281Z,0.52
2022-12-03T18:00:40.565Z,0.51
2022-12-03T18:03:07.586Z,0.50
2022-12-03T18:05:34.911Z,0.57
2022-12-03T18:08:02.092Z,0.50
2022-12-03T18:10:29.162Z,0.49
2022-12-03T18:13:01.624Z,0.50
2022-12-03T18:15:30.600Z,0.51
2022-12-03T18:17:58.175Z,0.53
2022-12-03T18:20:25.198Z,0.51
2022-12-03T18:22:52.395Z,0.48
2022-12-03T18:25:19.784Z,0.50
2022-12-03T18:27:46.851Z,0.49
2022-12-03T18:30:14.585Z,0.44
2022-12-03T18:32:41.736Z,0.45
2022-12-03T18:35:10.855Z,0.46
2022-12-03T18:37:37.980Z,0.45
2022-12-03T18:40:12.722Z,0.43
2022-12-03T18:42:40.547Z,0.46
2022-12-03T18:45:13.178Z,0.45
2022-12-03T18:47:42.524Z,0.45
2022-12-03T18:50:11.552Z,0.46
2022-12-03T18:52:38.974Z,0.51
2022-12-03T18:55:19.154Z,0.43
2022-12-03T18:57:47.195Z,0.41
2022-12-03T19:00:15.959Z,0.43
2022-12-03T19:03:02.497Z,0.45
2022-12-03T19:05:33.107Z,0.41
2022-12-03T19:08:02.503Z,0.42
2022-12-03T19:10:29.593Z,0.41
2022-12-03T19:12:57.228Z,0.37
2022-12-03T19:15:24.378Z,0.36
2022-12-03T19:17:51.629Z,0.39
2022-12-03T19:20:18.736Z,0.38
2022-12-03T19:22:46.237Z,0.41
2022-12-03T19:25:13.281Z,0.38
2022-12-03T19:27:40.303Z,0.39
2022-12-03T19:30:08.279Z,0.43
2022-12-03T19:32:35.799Z,0.39
2022-12-03T19:35:05.296Z,0.35
2022-12-03T19:37:33.878Z,0.44
2022-12-03T19:40:01.079Z,0.39
2022-12-03T19:42:31.105Z,0.40
2022-12-03T19:44:58.137Z,0.37
2022-12-03T19:47:25.519Z,0.32
2022-12-03T19:49:53.971Z,0.35
2022-12-03T19:52:21.249Z,0.34
2022-12-03T19:54:48.283Z,0.33
2022-12-03T19:57:21.525Z,0.33
2022-12-03T19:59:50.320Z,0.30
2022-12-03T20:02:17.510Z,0.27
2022-12-03T20:04:44.666Z,0.26
2022-12-03T20:07:11.647Z,0.26
2022-12-03T20:09:38.843Z,0.25
2022-12-03T20:12:06.154Z,0.30
2022-12-03T20:14:33.154Z,0.30
2022-12-03T20:17:01.204Z,0.30
2022-12-03T20:19:28.334Z,0.26
2022-12-03T20:22:00.723Z,0.27
2022-12-03T20:24:29.544Z,0.23
2022-12-03T20:26:56.678Z,0.20
2022-12-03T20:29:23.639Z,0.27
2022-12-03T20:31:50.825Z,0.26
2022-12-03T20:34:17.901Z,0.21
2022-12-03T20:36:45.532Z,0.23
2022-12-03T20:39:12.596Z,0.26
2022-12-03T20:41:39.612Z,0.26
2022-12-03T20:44:07.943Z,0.28
2022-12-03T20:46:36.272Z,0.21
2022-12-03T20:49:04.581Z,0.25
2022-12-03T20:51:32.268Z,0.26
2022-12-03T20:54:01.227Z,0.20
2022-12-03T20:56:39.366Z,0.21
2022-12-03T20:59:12.223Z,0.19
2022-12-03T21:01:42.041Z,0.17
2022-12-03T21:04:17.997Z,0.20
2022-12-03T21:06:45.994Z,0.19
2022-12-03T21:09:14.032Z,0.22
2022-12-03T21:11:42.685Z,0.20
2022-12-03T21:14:11.190Z,0.21
2022-12-03T21:17:06.638Z,0.19
2022-12-03T21:19:27.427Z,0.18
2022-12-03T21:21:55.428Z,0.19
2022-12-03T21:24:22.693Z,0.17
2022-12-03T21:26:50.257Z,0.17
2022-12-03T21:29:18.132Z,0.19
2022-12-03T21:31:45.382Z,0.21
2022-12-03T21:34:12.519Z,0.17
2022-12-03T21:36:40.116Z,0.20
2022-12-03T21:39:09.122Z,0.19
2022-12-03T21:41:36.242Z,0.23
2022-12-03T21:44:04.005Z,0.23
2022-12-03T21:47:09.219Z,0.23
2022-12-03T21:49:20.181Z,0.23
2022-12-03T21:51:47.158Z,0.21
2022-12-03T21:54:15.014Z,0.21
2022-12-03T21:56:43.165Z,0.24
2022-12-03T21:59:10.307Z,0.23
2022-12-03T22:01:37.341Z,0.22
2022-12-03T22:04:04.805Z,0.23
2022-12-03T22:06:31.832Z,0.20
2022-12-03T22:08:58.848Z,0.20
2022-12-03T22:11:25.889Z,0.22
2022-12-03T22:13:54.512Z,0.23
2022-12-03T22:16:21.877Z,0.24
2022-12-03T22:18:50.035Z,0.24
2022-12-03T22:21:24.974Z,0.20
2022-12-03T22:23:52.258Z,0.24
2022-12-03T22:26:19.359Z,0.20
2022-12-03T22:28:50.068Z,0.21
2022-12-03T22:31:19.839Z,0.22
2022-12-03T22:33:48.544Z,0.23
2022-12-03T22:36:21.424Z,0.26
2022-12-03T22:38:50.767Z,0.23
2022-12-03T22:41:19.272Z,0.20
2022-12-03T22:43:47.755Z,0.21
2022-12-03T22:46:16.528Z,0.26
2022-12-03T22:48:45.975Z,0.24
2022-12-03T22:51:23.087Z,0.25
2022-12-03T22:54:00.481Z,0.24
2022-12-03T22:56:29.673Z,0.30
2022-12-03T22:58:57.376Z,0.30
2022-12-03T23:01:27.940Z,0.28
2022-12-03T23:03:59.273Z,0.31
2022-12-03T23:06:28.366Z,0.32
2022-12-03T23:08:56.495Z,0.28
2022-12-03T23:11:24.217Z,0.29
2022-12-03T23:13:51.911Z,0.31
2022-12-03T23:16:24.589Z,0.30
2022-12-03T23:18:51.878Z,0.30
2022-12-03T23:21:28.939Z,0.32
2022-12-03T23:24:01.466Z,0.29
2022-12-03T23:26:29.940Z,0.30
2022-12-03T23:28:57.060Z,0.34
2022-12-03T23:31:31.473Z,0.34
2022-12-03T23:33:59.434Z,0.31
2022-12-03T23:36:31.523Z,0.33
2022-12-03T23:38:58.477Z,0.32
2022-12-03T23:41:25.749Z,0.33
2022-12-03T23:43:53.305Z,0.31
2022-12-03T23:46:27.799Z,0.35
2022-12-03T23:48:56.791Z,0.33
2022-12-03T23:51:25.634Z,0.35
2022-12-03T23:53:55.222Z,0.30
2022-12-03T23:56:27.477Z,0.36
2022-12-03T23:58:55.835Z,0.37
